Time;durP1;ratioP1;P1;durP2;ratioP2;P2;SDS_P1;SDS_P2;PMS_P1;PMS_P2;Temp;Humidity;BMP_temperature;BMP_pressure;BME280_temperature;BME280_humidity;BME280_pressure;Samples;Min_cycle;Max_cycle;Signal;HPM_P1;HPM_P2
2021/07/28 00:00:50;;;;;;;8.52;7.65;;;;;;;20.90;69.53;98187.22;5033850;28;20025;-64
2021/07/28 00:03:15;;;;;;;14.07;8.75;;;;;;;20.81;70.46;98187.84;5034782;28;20030;-65
2021/07/28 00:05:40;;;;;;;13.18;7.95;;;;;;;20.77;70.45;98189.81;5034360;28;20347;-65
2021/07/28 00:08:06;;;;;;;10.40;8.65;;;;;;;20.75;70.28;98183.88;5037414;28;20040;-65
2021/07/28 00:10:31;;;;;;;12.73;8.80;;;;;;;20.72;70.64;98188.44;5034392;28;20030;-65
2021/07/28 00:12:57;;;;;;;13.13;8.45;;;;;;;20.64;70.61;98188.97;5033861;28;20061;-64
2021/07/28 00:15:23;;;;;;;11.32;8.90;;;;;;;20.59;70.96;98185.84;5033857;28;20022;-64
2021/07/28 00:17:54;;;;;;;10.80;7.97;;;;;;;20.56;71.16;98187.81;5034477;28;20103;-65
2021/07/28 00:25:34;;;;;;;10.73;8.00;;;;;;;20.43;72.02;98185.19;5037643;28;20053;-65
2021/07/28 00:27:59;;;;;;;10.43;8.63;;;;;;;20.32;72.92;98182.47;5038908;28;20071;-65
2021/07/28 00:30:26;;;;;;;10.85;8.38;;;;;;;20.28;72.66;98180.97;5036811;28;20104;-65
2021/07/28 00:32:51;;;;;;;14.45;9.10;;;;;;;20.29;72.44;98177.41;5037330;28;20021;-64
2021/07/28 00:35:17;;;;;;;11.20;8.60;;;;;;;20.44;71.60;98172.06;5037777;28;20048;-64
2021/07/28 00:37:44;;;;;;;10.93;8.63;;;;;;;20.46;71.47;98167.59;5036759;28;20025;-64
2021/07/28 00:40:12;;;;;;;12.38;9.63;;;;;;;20.42;71.74;98170.50;5039505;28;20056;-64
2021/07/28 00:42:37;;;;;;;12.48;9.30;;;;;;;20.30;72.47;98171.28;5037602;28;20063;-64
2021/07/28 00:45:03;;;;;;;11.98;8.80;;;;;;;20.26;72.59;98180.22;5037968;28;20362;-64
2021/07/28 00:47:29;;;;;;;11.68;9.15;;;;;;;20.24;72.18;98184.69;5038819;28;20112;-65
2021/07/28 00:49:54;;;;;;;11.98;8.85;;;;;;;20.19;72.53;98171.97;5038284;28;20453;-65
2021/07/28 00:52:19;;;;;;;9.82;8.82;;;;;;;20.22;72.32;98171.78;5037256;28;20124;-65
2021/07/28 00:54:45;;;;;;;12.20;7.82;;;;;;;20.23;72.47;98170.00;5036210;28;20029;-64
2021/07/28 00:57:10;;;;;;;11.07;7.78;;;;;;;20.28;72.34;98175.75;5037210;28;20037;-64
2021/07/28 00:59:36;;;;;;;14.45;8.75;;;;;;;20.22;72.35;98178.75;5037891;28;20041;-65
2021/07/28 01:02:02;;;;;;;12.85;8.60;;;;;;;20.19;72.21;98168.53;5037382;28;20077;-65
2021/07/28 01:04:27;;;;;;;14.32;8.23;;;;;;;20.13;72.12;98174.13;5035770;28;20048;-64
2021/07/28 01:06:53;;;;;;;14.38;8.00;;;;;;;20.15;72.25;98172.28;5037678;28;20032;-64
2021/07/28 01:09:19;;;;;;;15.70;9.43;;;;;;;20.17;71.63;98166.03;5038809;28;20139;-64
2021/07/28 01:11:44;;;;;;;13.30;8.40;;;;;;;20.21;71.20;98169.25;5038770;28;20036;-65
2021/07/28 01:14:10;;;;;;;14.48;8.90;;;;;;;20.23;71.38;98168.25;5040971;28;20079;-64
2021/07/28 01:16:39;;;;;;;14.50;8.48;;;;;;;20.18;71.70;98169.47;5038099;28;20026;-64
2021/07/28 01:19:09;;;;;;;12.55;8.63;;;;;;;20.11;71.56;98178.63;5051209;28;20040;-64
2021/07/28 01:21:35;;;;;;;12.68;8.32;;;;;;;20.08;71.53;98171.81;5035817;28;20036;-64
2021/07/28 01:24:00;;;;;;;14.10;8.30;;;;;;;20.20;71.09;98170.22;5035732;28;20033;-65
2021/07/28 01:26:28;;;;;;;16.05;8.77;;;;;;;20.32;70.66;98172.88;5035947;28;20057;-65
2021/07/28 01:28:53;;;;;;;12.82;8.30;;;;;;;20.28;70.22;98167.94;5035945;28;20405;-65
2021/07/28 01:31:19;;;;;;;12.25;8.25;;;;;;;20.28;70.01;98174.00;5035429;28;20025;-65
2021/07/28 01:33:46;;;;;;;8.95;7.25;;;;;;;20.28;69.98;98184.41;5036306;28;20029;-65
2021/07/28 01:36:17;;;;;;;8.95;7.22;;;;;;;20.22;70.86;98204.78;5036228;28;20029;-65
2021/07/28 01:38:43;;;;;;;11.38;9.38;;;;;;;20.13;70.94;98203.59;5037491;28;20061;-65
2021/07/28 01:41:09;;;;;;;10.73;7.03;;;;;;;20.13;71.29;98203.59;5037018;28;20853;-65
2021/07/28 01:43:36;;;;;;;11.57;7.95;;;;;;;20.12;71.47;98201.09;5038387;28;20040;-65
2021/07/28 01:46:03;;;;;;;9.75;8.15;;;;;;;20.08;71.91;98206.50;5035513;28;20266;-65
2021/07/28 01:48:28;;;;;;;8.82;6.90;;;;;;;20.06;71.88;98205.78;5035847;28;20021;-65
2021/07/28 01:50:54;;;;;;;13.85;8.52;;;;;;;20.03;72.35;98203.34;5035982;28;20037;-65
2021/07/28 01:53:21;;;;;;;11.55;8.23;;;;;;;19.97;72.51;98205.53;5036949;28;20270;-65
2021/07/28 01:55:46;;;;;;;14.70;8.45;;;;;;;19.91;72.77;98204.13;5037970;28;20103;-65
2021/07/28 01:58:12;;;;;;;11.18;8.25;;;;;;;19.86;73.13;98198.38;5037001;28;20385;-65
2021/07/28 02:00:39;;;;;;;10.40;8.32;;;;;;;19.86;72.83;98192.38;5035675;28;20044;-65
2021/07/28 02:03:06;;;;;;;9.25;7.35;;;;;;;19.81;73.43;98197.88;5034282;28;20029;-65
2021/07/28 02:05:33;;;;;;;11.35;8.20;;;;;;;19.81;73.53;98200.47;5038776;28;20065;-65
2021/07/28 02:08:04;;;;;;;12.55;7.53;;;;;;;19.85;73.31;98196.75;5036820;28;20036;-64
2021/07/28 02:10:31;;;;;;;15.82;8.65;;;;;;;19.84;73.27;98187.25;5036549;28;20456;-66
2021/07/28 02:12:57;;;;;;;8.82;7.97;;;;;;;19.78;73.57;98189.38;5036997;28;20111;-63
2021/07/28 02:15:23;;;;;;;11.10;7.63;;;;;;;19.75;73.71;98194.78;5034874;28;20076;-64
2021/07/28 02:17:52;;;;;;;13.05;8.45;;;;;;;19.72;74.39;98195.84;5036586;28;20462;-65
2021/07/28 02:20:18;;;;;;;11.43;8.55;;;;;;;19.67;74.51;98199.66;5035563;28;20089;-65
2021/07/28 02:22:45;;;;;;;9.80;8.05;;;;;;;19.67;74.20;98191.84;5038794;28;20041;-64
2021/07/28 02:25:12;;;;;;;13.85;7.97;;;;;;;19.67;74.65;98197.88;5051071;28;20088;-65
2021/07/28 02:27:37;;;;;;;9.63;8.00;;;;;;;19.66;74.68;98206.63;5036454;28;20033;-64
2021/07/28 02:30:07;;;;;;;9.73;8.73;;;;;;;19.68;74.80;98209.97;5033037;28;20083;-64
2021/07/28 02:32:33;;;;;;;13.40;8.77;;;;;;;19.67;73.96;98205.69;5036004;28;20037;-64
2021/07/28 02:34:59;;;;;;;12.25;7.88;;;;;;;19.78;72.90;98202.41;5034488;28;20068;-64
2021/07/28 02:37:24;;;;;;;11.32;8.25;;;;;;;19.94;70.56;98196.13;5035094;28;20033;-64
2021/07/28 02:39:50;;;;;;;13.95;7.82;;;;;;;20.00;70.24;98195.75;5034401;28;20087;-64
2021/07/28 02:42:15;;;;;;;16.77;8.00;;;;;;;20.00;70.90;98187.94;5035661;28;20099;-64
2021/07/28 02:44:40;;;;;;;10.55;7.50;;;;;;;19.96;71.32;98190.84;5035766;28;20083;-64
2021/07/28 02:47:06;;;;;;;11.10;8.73;;;;;;;19.94;71.18;98190.13;5035021;28;20040;-64
2021/07/28 02:49:31;;;;;;;12.90;7.22;;;;;;;20.05;70.80;98185.88;5036949;28;20037;-64
2021/07/28 02:51:57;;;;;;;11.35;7.55;;;;;;;20.08;70.20;98190.88;5036578;28;20033;-64
2021/07/28 02:54:23;;;;;;;10.65;7.45;;;;;;;20.14;69.86;98199.25;5035939;28;20048;-64
2021/07/28 02:56:49;;;;;;;11.93;8.23;;;;;;;20.20;70.91;98201.47;5036340;28;20109;-65
2021/07/28 02:59:15;;;;;;;13.18;8.55;;;;;;;20.23;70.25;98201.25;5036274;28;20095;-64
2021/07/28 03:01:40;;;;;;;10.05;8.18;;;;;;;20.38;69.59;98203.72;5034143;28;20386;-65
2021/07/28 03:04:06;;;;;;;13.93;7.82;;;;;;;20.41;69.68;98200.91;5033052;28;20047;-64
2021/07/28 03:06:32;;;;;;;10.93;7.20;;;;;;;20.47;69.60;98203.13;5033793;28;20040;-65
2021/07/28 03:08:57;;;;;;;11.38;7.80;;;;;;;20.55;68.92;98205.22;5036221;28;20041;-64
2021/07/28 03:11:22;;;;;;;11.07;7.75;;;;;;;20.62;68.41;98209.09;5033086;28;20025;-64
2021/07/28 03:13:48;;;;;;;10.40;7.60;;;;;;;20.64;68.39;98216.78;5034630;28;20029;-64
2021/07/28 03:16:14;;;;;;;12.43;7.38;;;;;;;20.67;67.87;98230.44;5034828;28;20034;-63
2021/07/28 03:18:39;;;;;;;11.75;8.05;;;;;;;20.76;67.17;98236.81;5033788;28;20040;-63
2021/07/28 03:21:05;;;;;;;10.88;7.28;;;;;;;20.72;67.19;98230.97;5034117;28;20029;-63
2021/07/28 03:23:30;;;;;;;8.52;7.22;;;;;;;20.67;66.99;98225.22;5033983;28;20035;-63
2021/07/28 03:25:55;;;;;;;11.23;6.97;;;;;;;20.67;67.04;98224.41;5034548;28;20395;-63
2021/07/28 03:28:21;;;;;;;10.85;7.63;;;;;;;20.67;66.74;98219.19;5032887;28;20040;-65
2021/07/28 03:30:49;;;;;;;15.48;9.80;;;;;;;20.69;66.07;98212.13;5035655;28;20036;-65
2021/07/28 03:33:15;;;;;;;13.05;7.07;;;;;;;20.86;65.11;98222.25;5034028;28;20091;-65
2021/07/28 03:35:41;;;;;;;8.50;7.03;;;;;;;21.08;64.73;98219.03;5031257;28;20040;-65
2021/07/28 03:38:06;;;;;;;14.68;8.18;;;;;;;21.18;64.45;98226.13;5035113;28;20038;-65
2021/07/28 03:40:31;;;;;;;14.68;7.45;;;;;;;21.22;64.45;98230.19;5032774;28;20040;-65
2021/07/28 03:42:57;;;;;;;10.68;7.00;;;;;;;21.23;64.48;98215.41;5035297;28;20389;-65
2021/07/28 03:45:22;;;;;;;10.13;6.75;;;;;;;21.19;64.82;98221.75;5032967;28;20434;-65
2021/07/28 03:47:48;;;;;;;12.55;6.97;;;;;;;21.17;64.88;98234.91;5035322;28;20604;-64
2021/07/28 03:50:13;;;;;;;8.93;7.22;;;;;;;21.15;64.99;98238.56;5036117;28;20033;-64
2021/07/28 03:52:38;;;;;;;10.63;7.20;;;;;;;21.11;65.25;98234.44;5034637;28;20036;-63
2021/07/28 03:55:04;;;;;;;7.78;6.43;;;;;;;21.11;65.24;98221.41;5034552;28;20252;-65
2021/07/28 03:57:30;;;;;;;8.40;5.75;;;;;;;21.10;65.26;98232.78;5033701;28;20421;-65
2021/07/28 03:59:55;;;;;;;11.55;6.75;;;;;;;21.04;66.85;98236.66;5034886;28;20386;-65
2021/07/28 04:02:20;;;;;;;14.88;6.78;;;;;;;21.03;67.27;98242.81;5036660;28;20120;-65
2021/07/28 04:04:46;;;;;;;13.10;6.95;;;;;;;21.08;66.90;98250.31;5036432;28;20163;-64
2021/07/28 04:07:12;;;;;;;11.50;6.63;;;;;;;21.16;64.93;98235.84;5035609;28;20139;-64
2021/07/28 04:09:37;;;;;;;13.82;6.78;;;;;;;21.29;63.97;98241.91;5037508;28;20128;-64
2021/07/28 04:12:03;;;;;;;8.68;6.68;;;;;;;21.35;63.80;98243.22;5035800;28;20430;-64
2021/07/28 04:14:29;;;;;;;12.07;6.63;;;;;;;21.40;64.45;98238.53;5035642;28;20044;-64
2021/07/28 04:16:54;;;;;;;10.50;5.80;;;;;;;21.40;64.41;98248.97;5038400;28;20414;-65
2021/07/28 04:19:19;;;;;;;12.23;6.38;;;;;;;21.38;64.08;98256.09;5033429;28;20030;-64
2021/07/28 04:21:45;;;;;;;14.15;7.88;;;;;;;21.46;64.07;98253.78;5035788;28;20180;-64
2021/07/28 04:24:10;;;;;;;8.85;6.85;;;;;;;21.60;63.92;98247.63;5034660;28;20026;-64
2021/07/28 04:26:36;;;;;;;9.50;6.43;;;;;;;21.71;63.51;98255.50;5033645;28;20084;-64
2021/07/28 04:29:01;;;;;;;11.98;7.25;;;;;;;21.66;63.89;98255.84;5035703;28;20398;-63
2021/07/28 04:31:26;;;;;;;10.75;6.78;;;;;;;21.73;63.56;98257.06;5036009;28;20029;-63
2021/07/28 04:33:52;;;;;;;10.63;7.07;;;;;;;21.67;63.57;98262.72;5036219;28;20045;-63
2021/07/28 04:36:17;;;;;;;13.05;6.65;;;;;;;21.81;63.17;98259.97;5035882;28;20037;-63
2021/07/28 04:38:42;;;;;;;10.38;7.32;;;;;;;21.87;62.94;98267.38;5035330;28;20043;-63
2021/07/28 04:41:08;;;;;;;13.00;6.38;;;;;;;22.01;62.15;98265.59;5034151;28;20345;-63
2021/07/28 04:43:33;;;;;;;9.73;6.38;;;;;;;22.12;61.40;98268.28;5034743;28;20040;-64
2021/07/28 04:46:00;;;;;;;11.90;6.90;;;;;;;22.23;60.50;98271.81;5035385;28;20068;-64
2021/07/28 04:48:26;;;;;;;9.38;6.18;;;;;;;22.45;59.72;98275.47;5034004;28;20017;-64
2021/07/28 04:50:52;;;;;;;9.20;6.15;;;;;;;22.45;60.08;98273.66;5035329;28;20292;-64
2021/07/28 04:53:18;;;;;;;10.30;6.78;;;;;;;22.57;59.79;98262.34;5033783;28;20385;-64
2021/07/28 04:55:43;;;;;;;10.57;6.55;;;;;;;22.69;59.50;98269.31;5034947;28;20033;-69
2021/07/28 04:58:08;;;;;;;9.95;6.30;;;;;;;22.77;59.46;98272.19;5035953;28;20133;-69
2021/07/28 05:00:34;;;;;;;6.82;5.82;;;;;;;22.98;59.32;98261.91;5034698;28;20039;-69
2021/07/28 05:02:59;;;;;;;7.82;5.80;;;;;;;23.05;59.12;98265.72;5032011;28;20330;-69
2021/07/28 05:05:25;;;;;;;10.90;6.72;;;;;;;23.11;58.82;98262.66;5035532;28;20028;-68
2021/07/28 05:07:50;;;;;;;7.82;5.90;;;;;;;23.40;58.26;98264.81;5037828;28;20040;-68
2021/07/28 05:10:16;;;;;;;7.32;6.53;;;;;;;23.50;57.99;98256.19;5038585;28;20064;-69
2021/07/28 05:12:41;;;;;;;7.35;5.50;;;;;;;23.60;58.38;98251.88;5038144;28;20090;-69
2021/07/28 05:15:07;;;;;;;10.75;6.40;;;;;;;23.65;57.91;98260.22;5035436;28;20104;-69
2021/07/28 05:17:33;;;;;;;11.98;6.30;;;;;;;23.73;57.99;98259.59;5039728;28;20033;-70
2021/07/28 05:19:59;;;;;;;10.27;5.70;;;;;;;23.82;56.80;98258.91;5037398;28;20083;-64
2021/07/28 05:22:24;;;;;;;6.95;5.38;;;;;;;23.90;56.40;98263.53;5037723;28;20044;-64
2021/07/28 05:24:50;;;;;;;10.85;5.63;;;;;;;24.05;56.15;98270.19;5037727;28;20026;-64
2021/07/28 05:27:16;;;;;;;8.73;6.13;;;;;;;24.18;55.45;98270.91;5040258;28;20454;-64
2021/07/28 05:29:41;;;;;;;8.75;5.55;;;;;;;24.21;55.17;98270.66;5040044;28;20025;-64
2021/07/28 05:32:07;;;;;;;11.20;5.63;;;;;;;24.33;54.62;98269.66;5035419;28;20040;-64
2021/07/28 05:34:32;;;;;;;10.60;5.75;;;;;;;24.28;56.10;98273.59;5036890;28;20036;-64
2021/07/28 05:36:57;;;;;;;9.80;5.68;;;;;;;24.27;56.82;98278.03;5036173;28;20040;-64
2021/07/28 05:39:24;;;;;;;7.38;6.03;;;;;;;24.27;56.64;98285.06;5035851;28;20028;-64
2021/07/28 05:41:50;;;;;;;10.15;6.25;;;;;;;24.33;56.67;98284.53;5035277;28;20135;-64
2021/07/28 05:44:15;;;;;;;11.68;5.78;;;;;;;24.44;56.57;98285.34;5037331;28;20569;-64
2021/07/28 05:46:41;;;;;;;11.02;6.53;;;;;;;24.67;55.18;98286.09;5036411;28;20036;-64
2021/07/28 05:49:06;;;;;;;6.50;5.30;;;;;;;24.76;54.30;98279.28;5039996;28;20029;-64
2021/07/28 05:51:32;;;;;;;11.15;6.38;;;;;;;24.90;54.38;98279.84;5040937;28;20370;-64
2021/07/28 05:53:57;;;;;;;11.20;5.50;;;;;;;24.96;53.28;98279.31;5037462;28;20024;-64
2021/07/28 05:56:22;;;;;;;8.00;6.00;;;;;;;25.05;53.18;98282.97;5037813;28;20030;-64
2021/07/28 05:58:48;;;;;;;11.95;6.85;;;;;;;25.10;52.96;98287.84;5040387;28;20037;-63
2021/07/28 06:01:13;;;;;;;10.57;5.90;;;;;;;25.17;52.05;98287.19;5036230;28;20560;-64
2021/07/28 06:03:39;;;;;;;10.45;6.47;;;;;;;25.19;51.96;98293.16;5036645;28;20033;-63
2021/07/28 06:06:04;;;;;;;8.52;5.65;;;;;;;25.17;52.00;98291.59;5037053;28;20456;-64
2021/07/28 06:08:29;;;;;;;11.40;6.47;;;;;;;25.24;51.67;98295.38;5037267;28;20037;-64
2021/07/28 06:10:55;;;;;;;10.40;6.50;;;;;;;25.24;51.58;98298.84;5036877;28;20036;-64
2021/07/28 06:13:21;;;;;;;89.05;68.70;;;;;;;25.35;51.23;98295.31;5036016;28;20021;-64
2021/07/28 06:15:48;;;;;;;10.55;7.93;;;;;;;25.60;51.00;98309.84;5037740;28;20043;-64
2021/07/28 06:18:14;;;;;;;9.30;7.07;;;;;;;25.86;50.68;98304.03;5036375;28;20029;-64
2021/07/28 06:20:39;;;;;;;12.15;6.45;;;;;;;25.89;49.90;98308.16;5038635;28;20060;-64
2021/07/28 06:23:05;;;;;;;10.70;6.70;;;;;;;25.90;49.95;98308.03;5038580;28;20323;-64
2021/07/28 06:25:30;;;;;;;8.60;6.18;;;;;;;25.73;50.58;98313.91;5035460;28;20045;-64
2021/07/28 06:27:56;;;;;;;7.57;5.93;;;;;;;25.70;51.06;98311.56;5036446;28;20036;-64
2021/07/28 06:30:21;;;;;;;7.28;5.63;;;;;;;25.71;50.26;98317.66;5035591;28;20029;-65
2021/07/28 06:32:47;;;;;;;11.00;6.38;;;;;;;25.65;50.34;98313.75;5036322;28;20260;-70
2021/07/28 06:35:12;;;;;;;9.95;5.68;;;;;;;25.66;49.69;98322.47;5036566;28;20076;-70
2021/07/28 06:37:38;;;;;;;16.40;6.15;;;;;;;25.69;49.71;98324.81;5037774;28;20072;-70
2021/07/28 06:40:04;;;;;;;10.35;5.50;;;;;;;25.63;50.88;98323.53;5034706;28;20033;-70
2021/07/28 06:42:29;;;;;;;8.13;4.82;;;;;;;25.62;49.75;98318.44;5034100;28;20441;-71
2021/07/28 06:44:54;;;;;;;6.65;5.80;;;;;;;25.73;50.90;98318.34;5035148;28;20136;-69
2021/07/28 06:47:20;;;;;;;9.00;5.65;;;;;;;25.84;50.34;98319.06;5033867;28;20017;-70
2021/07/28 06:49:46;;;;;;;8.40;5.70;;;;;;;25.94;49.10;98311.22;5033329;28;20068;-70
2021/07/28 06:52:11;;;;;;;10.23;6.25;;;;;;;26.18;48.42;98313.53;5034896;28;20030;-70
2021/07/28 06:54:36;;;;;;;9.00;5.72;;;;;;;26.38;48.01;98311.81;5033612;28;20090;-69
2021/07/28 06:57:02;;;;;;;10.40;4.63;;;;;;;26.55;47.37;98306.72;5034887;28;20029;-69
2021/07/28 06:59:28;;;;;;;8.93;6.07;;;;;;;26.80;47.25;98313.22;5034415;28;20349;-71
2021/07/28 07:01:53;;;;;;;7.93;6.20;;;;;;;26.79;46.36;98298.41;5033887;28;20051;-71
2021/07/28 07:04:18;;;;;;;7.88;5.50;;;;;;;26.83;46.59;98299.78;5034793;28;20108;-70
2021/07/28 07:06:44;;;;;;;8.70;5.43;;;;;;;27.05;46.79;98296.06;5035963;28;21071;-70
2021/07/28 07:09:09;;;;;;;9.43;5.47;;;;;;;27.11;46.73;98295.50;5034610;28;20036;-71
2021/07/28 07:11:35;;;;;;;7.97;5.57;;;;;;;27.37;46.85;98293.13;5036572;28;20071;-69
2021/07/28 07:14:00;;;;;;;12.57;5.90;;;;;;;27.62;46.91;98288.06;5033919;28;20279;-70
2021/07/28 07:16:26;;;;;;;12.75;6.20;;;;;;;27.58;46.93;98301.69;5033551;28;20290;-70
2021/07/28 07:18:51;;;;;;;9.18;6.30;;;;;;;27.78;46.83;98298.00;5034518;28;20037;-70
2021/07/28 07:21:17;;;;;;;6.47;5.60;;;;;;;27.96;46.35;98303.31;5035214;28;20041;-71
2021/07/28 07:23:42;;;;;;;13.40;6.57;;;;;;;28.06;46.85;98301.44;5035277;28;20035;-69
2021/07/28 07:26:08;;;;;;;10.50;6.68;;;;;;;28.15;46.12;98296.16;5035242;28;20049;-72
2021/07/28 07:28:34;;;;;;;6.97;5.47;;;;;;;28.20;46.15;98302.81;5033585;28;20021;-72
2021/07/28 07:31:00;;;;;;;8.85;5.88;;;;;;;28.35;45.38;98296.88;5033550;28;20025;-72
2021/07/28 07:36:23;;;;;;;12.65;6.22;;;;;;;28.55;45.26;98297.59;5035815;28;20047;-71
2021/07/28 07:38:49;;;;;;;;;;;;;;;28.71;44.71;98296.94;5033539;28;20445;-73
2021/07/28 07:41:14;;;;;;;9.35;6.10;;;;;;;28.63;45.09;98297.66;5033805;28;19913;-74
2021/07/28 07:43:40;;;;;;;8.45;5.85;;;;;;;28.77;45.07;98299.78;5034365;28;20107;-73
2021/07/28 07:46:06;;;;;;;8.88;6.38;;;;;;;28.87;44.65;98297.91;5033412;28;20035;-76
2021/07/28 07:48:32;;;;;;;11.43;6.50;;;;;;;28.87;44.05;98307.63;5033485;28;20033;-75
2021/07/28 07:50:57;;;;;;;10.20;6.78;;;;;;;28.85;44.30;98305.16;5037031;28;20034;-74
2021/07/28 07:53:23;;;;;;;10.35;6.20;;;;;;;28.80;44.71;98301.31;5034348;28;20385;-73
2021/07/28 07:55:48;;;;;;;9.10;6.20;;;;;;;29.03;44.51;98303.31;5034495;28;20358;-73
2021/07/28 07:58:14;;;;;;;8.68;6.75;;;;;;;29.00;43.81;98293.06;5031298;28;20029;-73
2021/07/28 08:00:39;;;;;;;8.50;6.60;;;;;;;29.04;44.17;98294.41;5016927;28;20037;-72
2021/07/28 08:03:05;;;;;;;7.82;6.35;;;;;;;29.20;43.87;98282.31;4987474;28;20049;-72
2021/07/28 08:05:32;;;;;;;7.95;5.85;;;;;;;29.14;43.98;98288.22;4998734;28;20025;-72
2021/07/28 08:07:57;;;;;;;6.70;6.03;;;;;;;29.29;43.78;98284.03;5003125;28;20283;-73
2021/07/28 08:10:23;;;;;;;7.85;6.93;;;;;;;29.43;43.60;98276.41;5013023;28;20034;-72
2021/07/28 08:12:48;;;;;;;7.22;6.20;;;;;;;29.41;43.42;98282.81;5012730;28;20053;-71
2021/07/28 08:15:14;;;;;;;7.65;6.07;;;;;;;29.35;43.05;98273.72;5013864;28;20432;-72
2021/07/28 08:17:40;;;;;;;7.25;6.32;;;;;;;29.47;43.05;98276.91;5013197;28;20030;-71
2021/07/28 08:20:06;;;;;;;11.90;7.28;;;;;;;29.49;42.90;98286.31;5016196;28;20117;-73
2021/07/28 08:22:32;;;;;;;8.20;6.70;;;;;;;29.48;43.75;98281.22;5013099;28;20030;-72
2021/07/28 08:24:58;;;;;;;5.60;5.20;;;;;;;29.28;42.05;98279.75;5014603;28;20033;-73
2021/07/28 08:27:25;;;;;;;7.72;5.75;;;;;;;29.22;42.02;98281.19;5015839;28;20022;-74
2021/07/28 08:29:54;;;;;;;5.63;5.32;;;;;;;29.19;42.21;98278.84;5013904;28;20375;-73
2021/07/28 08:32:20;;;;;;;7.72;6.55;;;;;;;29.28;40.94;98285.03;5016173;28;20292;-73
2021/07/28 08:34:46;;;;;;;5.88;5.38;;;;;;;29.16;41.31;98271.22;5014241;28;20040;-72
2021/07/28 08:37:11;;;;;;;5.35;4.95;;;;;;;28.96;42.41;98273.22;5013321;28;20521;-73
2021/07/28 08:39:36;;;;;;;5.93;5.32;;;;;;;28.98;41.82;98271.25;5011268;28;20041;-74
2021/07/28 08:42:05;;;;;;;5.57;5.18;;;;;;;29.23;41.50;98266.16;5017112;28;20071;-72
2021/07/28 09:04:43;;;;;;;5.85;5.35;;;;;;;29.43;41.13;98257.06;4938783;28;20516;-89
2021/07/28 09:07:23;;;;;;;5.80;5.30;;;;;;;29.65;40.68;98253.06;5017853;28;20042;-89
2021/07/28 09:09:57;;;;;;;6.85;5.38;;;;;;;29.86;40.09;98256.13;5001342;28;20068;-90
2021/07/28 09:12:52;;;;;;;6.88;6.13;;;;;;;30.16;41.34;98252.13;5017068;28;20158;-90
2021/07/28 09:15:18;;;;;;;;;;;;;;;30.42;40.39;98252.00;4997692;28;20056;-90
2021/07/28 09:17:48;;;;;;;5.93;5.50;;;;;;;30.40;40.10;98250.34;5000186;28;19913;-91
2021/07/28 09:20:23;;;;;;;6.40;5.80;;;;;;;30.37;41.50;98247.19;5016214;28;20088;-90
2021/07/28 09:22:49;;;;;;;6.30;5.80;;;;;;;30.26;41.49;98229.81;5000317;28;20024;-90
2021/07/28 09:25:18;;;;;;;6.28;5.72;;;;;;;30.24;41.64;98238.91;5016192;28;20037;-91
2021/07/28 09:27:47;;;;;;;5.85;5.35;;;;;;;30.33;41.62;98240.59;5000974;28;20030;-90
2021/07/28 09:30:34;;;;;;;6.60;6.10;;;;;;;30.44;41.29;98231.47;5027769;28;20097;-89
2021/07/28 09:33:01;;;;;;;6.68;6.25;;;;;;;30.44;41.31;98242.94;5029292;28;20081;-91
2021/07/28 09:35:46;;;;;;;6.32;5.82;;;;;;;30.38;41.69;98244.38;5032220;28;20074;-88
2021/07/28 09:38:24;;;;;;;10.85;6.47;;;;;;;30.43;41.69;98240.44;4989195;28;20104;-90
2021/07/28 09:40:50;;;;;;;7.35;6.03;;;;;;;30.19;42.24;98228.81;5010909;28;20086;-90
2021/07/28 09:43:15;;;;;;;6.50;5.90;;;;;;;30.43;41.64;98232.50;5012437;28;20029;-90
2021/07/28 09:45:40;;;;;;;5.97;5.47;;;;;;;30.55;41.34;98237.34;5031018;28;20030;-89
2021/07/28 09:58:15;;;;;;;6.60;5.85;;;;;;;30.81;40.92;98222.09;5009610;28;20060;-91
2021/07/28 10:00:40;;;;;;;5.95;5.45;;;;;;;31.06;40.24;98224.78;5020594;28;20029;-91
2021/07/28 10:03:08;;;;;;;6.65;6.05;;;;;;;31.02;39.92;98211.00;5000107;28;20025;-90
2021/07/28 10:05:39;;;;;;;6.28;5.68;;;;;;;31.21;40.12;98215.13;4994985;28;20330;-90
2021/07/28 10:08:07;;;;;;;6.47;5.97;;;;;;;31.31;40.07;98201.69;4976452;28;20113;-90
2021/07/28 10:10:36;;;;;;;6.57;6.00;;;;;;;31.55;40.20;98198.97;4977041;28;20030;-91
2021/07/28 10:13:01;;;;;;;6.18;5.68;;;;;;;31.64;38.49;98208.56;4976131;28;20384;-91
2021/07/28 10:15:28;;;;;;;6.00;5.50;;;;;;;31.64;38.23;98211.22;4977952;28;20038;-91
2021/07/28 10:17:56;;;;;;;6.10;5.65;;;;;;;31.95;39.37;98212.06;4977302;28;20031;-91
2021/07/28 10:20:23;;;;;;;8.40;7.18;;;;;;;32.34;39.38;98208.50;4977108;28;20042;-91
2021/07/28 10:22:50;;;;;;;12.50;6.88;;;;;;;32.36;39.55;98207.34;4966301;28;21023;-90
2021/07/28 10:25:17;;;;;;;12.60;6.63;;;;;;;32.52;39.29;98196.59;4977104;28;20379;-90
2021/07/28 10:27:45;;;;;;;11.35;6.50;;;;;;;32.65;38.38;98203.16;4975720;28;20115;-90
2021/07/28 10:30:15;;;;;;;8.27;6.28;;;;;;;32.74;38.72;98199.44;4977218;28;20031;-90
2021/07/28 10:32:42;;;;;;;24.92;7.90;;;;;;;32.74;37.85;98179.03;4979277;28;20042;-89
2021/07/28 10:35:29;;;;;;;6.53;5.88;;;;;;;33.07;38.28;98184.84;4975744;28;20072;-90
2021/07/28 10:37:57;;;;;;;5.78;5.47;;;;;;;33.15;37.26;98191.91;4977528;28;20091;-90
2021/07/28 10:40:32;;;;;;;6.95;6.30;;;;;;;33.29;36.81;98177.81;4977101;28;20064;-90
2021/07/28 10:42:59;;;;;;;6.57;5.95;;;;;;;33.02;36.80;98185.38;4979191;28;20335;-90
2021/07/28 10:45:26;;;;;;;7.53;6.70;;;;;;;33.19;36.12;98178.09;4981360;28;20121;-90
2021/07/28 10:47:52;;;;;;;6.50;5.93;;;;;;;33.25;36.56;98177.38;4988429;28;20066;-88
2021/07/28 10:50:30;;;;;;;7.03;6.38;;;;;;;33.30;37.08;98172.34;4987662;28;20066;-88
2021/07/28 10:53:00;;;;;;;8.73;6.22;;;;;;;33.08;37.09;98175.88;4982802;28;20098;-91
2021/07/28 10:55:27;;;;;;;9.00;5.50;;;;;;;32.90;37.30;98170.91;4977080;28;20419;-90
2021/07/28 10:58:11;;;;;;;6.57;5.82;;;;;;;32.55;37.40;98160.91;4975862;28;20035;-90
2021/07/28 11:00:39;;;;;;;6.53;5.93;;;;;;;32.61;37.14;98163.72;4977009;28;20041;-90
2021/07/28 11:03:08;;;;;;;9.98;7.43;;;;;;;32.78;37.70;98166.22;4993454;28;20603;-89
2021/07/28 11:05:35;;;;;;;7.18;6.20;;;;;;;32.64;36.70;98157.19;4989672;28;20097;-90
2021/07/28 11:08:17;;;;;;;7.85;7.00;;;;;;;32.71;37.03;98149.34;4994101;28;20037;-90
2021/07/28 11:11:01;;;;;;;7.03;6.35;;;;;;;32.69;37.91;98159.31;4993822;28;20274;-90
2021/07/28 11:13:28;;;;;;;6.68;6.10;;;;;;;33.01;37.17;98159.03;4995051;28;20029;-90
2021/07/28 11:16:00;;;;;;;7.75;7.07;;;;;;;32.95;36.82;98155.25;4996596;28;20044;-90
2021/07/28 11:18:41;;;;;;;12.15;7.35;;;;;;;33.30;36.85;98153.72;4997767;28;20367;-90
2021/07/28 11:21:08;;;;;;;7.57;6.95;;;;;;;33.37;36.75;98143.16;4996387;28;20038;-90
2021/07/28 11:23:34;;;;;;;7.43;6.72;;;;;;;33.28;35.50;98150.41;4998409;28;20034;-90
2021/07/28 11:26:02;;;;;;;6.72;6.13;;;;;;;33.12;35.73;98145.25;4997044;28;20284;-90
2021/07/28 11:28:28;;;;;;;7.70;6.28;;;;;;;33.12;36.35;98139.94;4997503;28;20022;-91
2021/07/28 11:31:01;;;;;;;8.00;6.55;;;;;;;32.71;36.66;98138.72;4986556;28;20033;-90
2021/07/28 11:33:28;;;;;;;7.55;6.22;;;;;;;32.94;36.76;98129.69;4996439;28;20030;-90
2021/07/28 11:35:55;;;;;;;6.65;5.68;;;;;;;32.92;36.20;98117.59;4988437;28;20034;-90
2021/07/28 11:38:23;;;;;;;8.30;6.57;;;;;;;32.78;35.74;98110.44;4995364;28;20041;-91
2021/07/28 11:40:50;;;;;;;6.38;5.70;;;;;;;32.65;36.48;98124.34;4996133;28;20034;-90
2021/07/28 11:43:30;;;;;;;7.13;6.53;;;;;;;32.95;35.93;98118.06;5012191;28;20663;-89
2021/07/28 11:45:57;;;;;;;7.47;6.78;;;;;;;33.15;34.54;98118.34;4996028;28;20069;-90
2021/07/28 11:48:41;;;;;;;11.82;6.72;;;;;;;32.97;35.91;98121.34;5003457;28;20026;-90
2021/07/28 11:51:22;;;;;;;7.63;6.20;;;;;;;33.00;36.01;98113.03;5012732;28;20037;-90
2021/07/28 11:53:48;;;;;;;8.43;6.90;;;;;;;33.26;36.21;98101.94;5014119;28;20046;-90
2021/07/28 11:56:15;;;;;;;9.70;7.03;;;;;;;33.07;36.32;98105.97;5009759;28;20026;-90
2021/07/28 11:58:42;;;;;;;9.93;6.80;;;;;;;32.89;36.40;98105.50;4995833;28;20030;-90
2021/07/28 12:01:21;;;;;;;6.60;5.63;;;;;;;33.23;36.11;98114.78;5015005;28;20038;-89
2021/07/28 12:03:51;;;;;;;8.18;7.18;;;;;;;33.03;36.17;98104.69;5013447;28;20034;-89
2021/07/28 12:06:39;;;;;;;8.13;7.32;;;;;;;33.18;36.54;98101.22;4999735;28;20350;-90